sensor_id;sensor_type;location;lat;lon;timestamp;temperature;humidity
18581;DHT22;9420;50.876;7.012;2023-04-24T00:01:12;11.70;1.00
18581;DHT22;9420;50.876;7.012;2023-04-24T00:03:40;11.60;1.00
18581;DHT22;9420;50.876;7.012;2023-04-24T00:06:07;11.60;1.00
18581;DHT22;9420;50.876;7.012;2023-04-24T00:08:35;11.60;1.00
18581;DHT22;9420;50.876;7.012;2023-04-24T00:11:02;11.60;1.00
18581;DHT22;9420;50.876;7.012;2023-04-24T00:13:30;11.60;1.00
18581;DHT22;9420;50.876;7.012;2023-04-24T00:15:57;11.60;1.00
18581;DHT22;9420;50.876;7.012;2023-04-24T00:18:24;11.60;1.00
18581;DHT22;9420;50.876;7.012;2023-04-24T00:20:51;11.60;1.00
18581;DHT22;9420;50.876;7.012;2023-04-24T00:23:18;11.60;1.00
18581;DHT22;9420;50.876;7.012;2023-04-24T00:25:45;11.50;1.00
18581;DHT22;9420;50.876;7.012;2023-04-24T00:28:12;11.50;1.00
18581;DHT22;9420;50.876;7.012;2023-04-24T00:30:41;11.50;1.00
18581;DHT22;9420;50.876;7.012;2023-04-24T00:33:08;11.40;1.00
18581;DHT22;9420;50.876;7.012;2023-04-24T00:35:35;11.30;1.00
18581;DHT22;9420;50.876;7.012;2023-04-24T00:38:02;11.30;1.00
18581;DHT22;9420;50.876;7.012;2023-04-24T00:40:29;11.40;1.00
18581;DHT22;9420;50.876;7.012;2023-04-24T00:42:56;11.40;1.00
18581;DHT22;9420;50.876;7.012;2023-04-24T00:45:23;11.50;1.00
18581;DHT22;9420;50.876;7.012;2023-04-24T00:47:53;11.60;1.00
18581;DHT22;9420;50.876;7.012;2023-04-24T00:50:21;11.60;1.00
18581;DHT22;9420;50.876;7.012;2023-04-24T00:52:48;11.60;1.00
18581;DHT22;9420;50.876;7.012;2023-04-24T00:55:16;11.60;1.00
18581;DHT22;9420;50.876;7.012;2023-04-24T00:57:43;11.60;1.00
18581;DHT22;9420;50.876;7.012;2023-04-24T01:00:12;11.60;1.00
18581;DHT22;9420;50.876;7.012;2023-04-24T01:02:43;11.60;1.00
18581;DHT22;9420;50.876;7.012;2023-04-24T01:05:13;11.70;1.00
18581;DHT22;9420;50.876;7.012;2023-04-24T01:07:44;11.70;1.00
18581;DHT22;9420;50.876;7.012;2023-04-24T01:10:14;11.70;1.00
18581;DHT22;9420;50.876;7.012;2023-04-24T01:12:43;11.60;1.00
18581;DHT22;9420;50.876;7.012;2023-04-24T01:15:10;11.50;1.00
18581;DHT22;9420;50.876;7.012;2023-04-24T01:17:37;11.50;1.00
18581;DHT22;9420;50.876;7.012;2023-04-24T01:20:05;11.40;1.00
18581;DHT22;9420;50.876;7.012;2023-04-24T01:22:35;11.30;1.00
18581;DHT22;9420;50.876;7.012;2023-04-24T01:25:04;11.30;1.00
18581;DHT22;9420;50.876;7.012;2023-04-24T01:27:32;11.30;1.00
18581;DHT22;9420;50.876;7.012;2023-04-24T01:29:59;11.30;1.00
18581;DHT22;9420;50.876;7.012;2023-04-24T01:32:26;11.30;1.00
18581;DHT22;9420;50.876;7.012;2023-04-24T01:34:54;11.30;99.90
18581;DHT22;9420;50.876;7.012;2023-04-24T01:37:22;11.40;99.90
18581;DHT22;9420;50.876;7.012;2023-04-24T01:39:50;11.30;99.90
18581;DHT22;9420;50.876;7.012;2023-04-24T01:42:17;11.30;99.90
18581;DHT22;9420;50.876;7.012;2023-04-24T01:44:44;11.30;99.90
18581;DHT22;9420;50.876;7.012;2023-04-24T01:47:12;11.30;99.90
18581;DHT22;9420;50.876;7.012;2023-04-24T01:49:39;11.20;99.90
18581;DHT22;9420;50.876;7.012;2023-04-24T01:52:06;11.10;99.90
18581;DHT22;9420;50.876;7.012;2023-04-24T01:54:33;11.10;99.90
18581;DHT22;9420;50.876;7.012;2023-04-24T01:57:02;11.00;99.90
18581;DHT22;9420;50.876;7.012;2023-04-24T01:59:30;11.00;99.90
18581;DHT22;9420;50.876;7.012;2023-04-24T02:02:00;10.90;99.90
18581;DHT22;9420;50.876;7.012;2023-04-24T02:04:27;10.80;99.90
18581;DHT22;9420;50.876;7.012;2023-04-24T02:06:55;10.80;99.90
18581;DHT22;9420;50.876;7.012;2023-04-24T02:09:22;10.70;99.90
18581;DHT22;9420;50.876;7.012;2023-04-24T02:11:49;10.60;99.90
18581;DHT22;9420;50.876;7.012;2023-04-24T02:14:17;10.60;99.90
18581;DHT22;9420;50.876;7.012;2023-04-24T02:16:44;10.50;99.90
18581;DHT22;9420;50.876;7.012;2023-04-24T02:19:11;10.50;99.90
18581;DHT22;9420;50.876;7.012;2023-04-24T02:21:38;10.40;99.90
18581;DHT22;9420;50.876;7.012;2023-04-24T02:24:05;10.30;99.90
18581;DHT22;9420;50.876;7.012;2023-04-24T02:26:32;10.30;99.90
18581;DHT22;9420;50.876;7.012;2023-04-24T02:28:59;10.20;99.90
18581;DHT22;9420;50.876;7.012;2023-04-24T02:31:28;10.10;99.90
18581;DHT22;9420;50.876;7.012;2023-04-24T02:33:55;10.00;99.90
18581;DHT22;9420;50.876;7.012;2023-04-24T02:36:22;9.90;99.90
18581;DHT22;9420;50.876;7.012;2023-04-24T02:38:49;9.90;99.90
18581;DHT22;9420;50.876;7.012;2023-04-24T02:41:16;9.80;99.90
18581;DHT22;9420;50.876;7.012;2023-04-24T02:43:43;9.80;99.90
18581;DHT22;9420;50.876;7.012;2023-04-24T02:46:10;9.70;99.90
18581;DHT22;9420;50.876;7.012;2023-04-24T02:48:39;9.70;99.90
18581;DHT22;9420;50.876;7.012;2023-04-24T02:51:06;9.60;99.90
18581;DHT22;9420;50.876;7.012;2023-04-24T02:53:33;9.60;99.90
18581;DHT22;9420;50.876;7.012;2023-04-24T02:56:00;9.60;99.90
18581;DHT22;9420;50.876;7.012;2023-04-24T02:58:27;9.70;99.90
18581;DHT22;9420;50.876;7.012;2023-04-24T03:00:54;9.70;99.90
18581;DHT22;9420;50.876;7.012;2023-04-24T03:03:23;9.80;99.90
18581;DHT22;9420;50.876;7.012;2023-04-24T03:05:52;9.90;99.90
18581;DHT22;9420;50.876;7.012;2023-04-24T03:08:19;9.90;99.90
18581;DHT22;9420;50.876;7.012;2023-04-24T03:10:46;10.00;99.90
18581;DHT22;9420;50.876;7.012;2023-04-24T03:13:13;10.00;99.90
18581;DHT22;9420;50.876;7.012;2023-04-24T03:15:40;10.00;99.90
18581;DHT22;9420;50.876;7.012;2023-04-24T03:18:07;10.00;99.90
18581;DHT22;9420;50.876;7.012;2023-04-24T03:20:34;10.00;99.90
18581;DHT22;9420;50.876;7.012;2023-04-24T03:23:03;10.00;99.90
18581;DHT22;9420;50.876;7.012;2023-04-24T03:25:30;9.90;99.90
18581;DHT22;9420;50.876;7.012;2023-04-24T03:27:57;9.80;99.90
18581;DHT22;9420;50.876;7.012;2023-04-24T03:30:24;9.70;99.90
18581;DHT22;9420;50.876;7.012;2023-04-24T03:32:52;9.70;99.90
18581;DHT22;9420;50.876;7.012;2023-04-24T03:35:19;9.60;99.90
18581;DHT22;9420;50.876;7.012;2023-04-24T03:37:46;9.60;99.90
18581;DHT22;9420;50.876;7.012;2023-04-24T03:40:15;9.50;99.90
18581;DHT22;9420;50.876;7.012;2023-04-24T03:42:42;9.40;99.90
18581;DHT22;9420;50.876;7.012;2023-04-24T03:45:09;9.30;99.90
18581;DHT22;9420;50.876;7.012;2023-04-24T03:47:36;9.10;99.90
18581;DHT22;9420;50.876;7.012;2023-04-24T03:50:04;9.20;99.90
18581;DHT22;9420;50.876;7.012;2023-04-24T03:52:32;9.10;99.90
18581;DHT22;9420;50.876;7.012;2023-04-24T03:54:59;9.00;1.00
18581;DHT22;9420;50.876;7.012;2023-04-24T03:57:27;8.90;1.00
18581;DHT22;9420;50.876;7.012;2023-04-24T03:59:54;8.90;1.00
18581;DHT22;9420;50.876;7.012;2023-04-24T04:02:21;8.80;1.00
18581;DHT22;9420;50.876;7.012;2023-04-24T04:04:48;8.90;1.00
18581;DHT22;9420;50.876;7.012;2023-04-24T04:07:15;8.90;1.00
18581;DHT22;9420;50.876;7.012;2023-04-24T04:09:42;9.10;1.00
18581;DHT22;9420;50.876;7.012;2023-04-24T04:12:09;9.10;1.00
18581;DHT22;9420;50.876;7.012;2023-04-24T04:14:38;9.10;99.90
18581;DHT22;9420;50.876;7.012;2023-04-24T04:17:05;9.10;1.00
18581;DHT22;9420;50.876;7.012;2023-04-24T04:19:32;9.10;99.90
18581;DHT22;9420;50.876;7.012;2023-04-24T04:21:59;9.10;1.00
18581;DHT22;9420;50.876;7.012;2023-04-24T04:24:26;9.10;1.00
18581;DHT22;9420;50.876;7.012;2023-04-24T04:26:54;9.10;1.00
18581;DHT22;9420;50.876;7.012;2023-04-24T04:29:22;9.10;1.00
18581;DHT22;9420;50.876;7.012;2023-04-24T04:31:52;9.10;1.00
18581;DHT22;9420;50.876;7.012;2023-04-24T04:34:20;9.10;1.00
18581;DHT22;9420;50.876;7.012;2023-04-24T04:36:48;9.10;1.00
18581;DHT22;9420;50.876;7.012;2023-04-24T04:39:16;9.10;1.00
18581;DHT22;9420;50.876;7.012;2023-04-24T04:41:44;9.10;1.00
18581;DHT22;9420;50.876;7.012;2023-04-24T04:44:12;9.10;1.00
18581;DHT22;9420;50.876;7.012;2023-04-24T04:46:39;9.10;1.00
18581;DHT22;9420;50.876;7.012;2023-04-24T04:49:08;9.10;1.00
18581;DHT22;9420;50.876;7.012;2023-04-24T04:51:36;9.10;1.00
18581;DHT22;9420;50.876;7.012;2023-04-24T04:54:03;9.10;1.00
18581;DHT22;9420;50.876;7.012;2023-04-24T04:56:32;9.10;1.00
18581;DHT22;9420;50.876;7.012;2023-04-24T04:58:59;9.10;1.00
18581;DHT22;9420;50.876;7.012;2023-04-24T05:01:26;9.20;1.00
18581;DHT22;9420;50.876;7.012;2023-04-24T05:03:53;9.20;1.00
18581;DHT22;9420;50.876;7.012;2023-04-24T05:06:24;9.20;1.00
18581;DHT22;9420;50.876;7.012;2023-04-24T05:08:51;9.20;1.00
18581;DHT22;9420;50.876;7.012;2023-04-24T05:11:22;9.20;1.00
18581;DHT22;9420;50.876;7.012;2023-04-24T05:13:49;9.20;1.00
18581;DHT22;9420;50.876;7.012;2023-04-24T05:16:16;9.20;1.00
18581;DHT22;9420;50.876;7.012;2023-04-24T05:18:44;9.20;1.00
18581;DHT22;9420;50.876;7.012;2023-04-24T05:21:12;9.20;1.00
18581;DHT22;9420;50.876;7.012;2023-04-24T05:23:40;9.20;1.00
18581;DHT22;9420;50.876;7.012;2023-04-24T05:26:07;9.20;1.00
18581;DHT22;9420;50.876;7.012;2023-04-24T05:28:35;9.20;1.00
18581;DHT22;9420;50.876;7.012;2023-04-24T05:31:02;9.20;1.00
18581;DHT22;9420;50.876;7.012;2023-04-24T05:33:30;9.20;1.00
18581;DHT22;9420;50.876;7.012;2023-04-24T05:35:57;9.20;1.00
18581;DHT22;9420;50.876;7.012;2023-04-24T05:38:24;9.20;1.00
18581;DHT22;9420;50.876;7.012;2023-04-24T05:40:52;9.20;1.00
18581;DHT22;9420;50.876;7.012;2023-04-24T05:43:19;9.30;1.00
18581;DHT22;9420;50.876;7.012;2023-04-24T05:45:46;9.30;1.00
18581;DHT22;9420;50.876;7.012;2023-04-24T05:48:15;9.30;1.00
18581;DHT22;9420;50.876;7.012;2023-04-24T05:50:42;9.30;1.00
18581;DHT22;9420;50.876;7.012;2023-04-24T05:53:09;9.30;1.00
18581;DHT22;9420;50.876;7.012;2023-04-24T05:55:36;9.40;1.00
18581;DHT22;9420;50.876;7.012;2023-04-24T05:58:05;9.40;1.00
18581;DHT22;9420;50.876;7.012;2023-04-24T06:00:32;9.40;1.00
18581;DHT22;9420;50.876;7.012;2023-04-24T06:03:00;9.40;1.00
18581;DHT22;9420;50.876;7.012;2023-04-24T06:05:29;9.50;1.00
18581;DHT22;9420;50.876;7.012;2023-04-24T06:07:56;9.40;1.00
18581;DHT22;9420;50.876;7.012;2023-04-24T06:10:23;9.40;1.00
18581;DHT22;9420;50.876;7.012;2023-04-24T06:12:51;9.30;1.00
18581;DHT22;9420;50.876;7.012;2023-04-24T06:15:19;9.30;1.00
18581;DHT22;9420;50.876;7.012;2023-04-24T06:17:46;9.30;1.00
18581;DHT22;9420;50.876;7.012;2023-04-24T06:20:14;9.40;1.00
18581;DHT22;9420;50.876;7.012;2023-04-24T06:22:41;9.40;1.00
18581;DHT22;9420;50.876;7.012;2023-04-24T06:25:11;9.60;1.00
18581;DHT22;9420;50.876;7.012;2023-04-24T06:27:38;9.60;1.00
18581;DHT22;9420;50.876;7.012;2023-04-24T06:30:07;9.60;1.00
18581;DHT22;9420;50.876;7.012;2023-04-24T06:32:36;9.60;1.00
18581;DHT22;9420;50.876;7.012;2023-04-24T06:35:04;9.50;1.00
18581;DHT22;9420;50.876;7.012;2023-04-24T06:37:32;9.30;99.90
18581;DHT22;9420;50.876;7.012;2023-04-24T06:39:59;9.10;99.90
18581;DHT22;9420;50.876;7.012;2023-04-24T06:42:26;9.10;99.90
18581;DHT22;9420;50.876;7.012;2023-04-24T06:44:53;9.10;99.90
18581;DHT22;9420;50.876;7.012;2023-04-24T06:47:20;9.10;1.00
18581;DHT22;9420;50.876;7.012;2023-04-24T06:49:49;8.90;1.00
18581;DHT22;9420;50.876;7.012;2023-04-24T06:52:18;8.90;1.00
18581;DHT22;9420;50.876;7.012;2023-04-24T06:54:45;8.80;99.90
18581;DHT22;9420;50.876;7.012;2023-04-24T06:57:12;8.70;1.00
18581;DHT22;9420;50.876;7.012;2023-04-24T06:59:39;8.70;1.00
18581;DHT22;9420;50.876;7.012;2023-04-24T07:02:06;8.70;1.00
18581;DHT22;9420;50.876;7.012;2023-04-24T07:04:33;8.70;90.50
18581;DHT22;9420;50.876;7.012;2023-04-24T07:07:02;8.70;1.00
18581;DHT22;9420;50.876;7.012;2023-04-24T07:09:31;8.70;99.90
18581;DHT22;9420;50.876;7.012;2023-04-24T07:11:58;8.60;25.60
18581;DHT22;9420;50.876;7.012;2023-04-24T07:14:25;8.60;99.90
18581;DHT22;9420;50.876;7.012;2023-04-24T07:16:52;8.70;1.40
18581;DHT22;9420;50.876;7.012;2023-04-24T07:19:19;8.70;99.90
18581;DHT22;9420;50.876;7.012;2023-04-24T07:21:46;8.70;99.90
18581;DHT22;9420;50.876;7.012;2023-04-24T07:24:14;8.70;99.90
18581;DHT22;9420;50.876;7.012;2023-04-24T07:26:41;8.70;99.90
18581;DHT22;9420;50.876;7.012;2023-04-24T07:29:08;8.60;1.00
18581;DHT22;9420;50.876;7.012;2023-04-24T07:31:36;8.50;1.00
18581;DHT22;9420;50.876;7.012;2023-04-24T07:34:03;8.50;99.90
18581;DHT22;9420;50.876;7.012;2023-04-24T07:36:30;8.50;1.00
18581;DHT22;9420;50.876;7.012;2023-04-24T07:38:58;8.40;1.00
18581;DHT22;9420;50.876;7.012;2023-04-24T07:41:26;8.30;1.00
18581;DHT22;9420;50.876;7.012;2023-04-24T07:43:54;8.30;99.90
18581;DHT22;9420;50.876;7.012;2023-04-24T07:46:21;8.30;1.00
18581;DHT22;9420;50.876;7.012;2023-04-24T07:48:50;8.30;1.00
18581;DHT22;9420;50.876;7.012;2023-04-24T07:51:17;8.20;99.90
18581;DHT22;9420;50.876;7.012;2023-04-24T07:53:44;8.10;99.90
18581;DHT22;9420;50.876;7.012;2023-04-24T07:56:11;8.20;99.90
18581;DHT22;9420;50.876;7.012;2023-04-24T07:58:40;8.10;1.00
18581;DHT22;9420;50.876;7.012;2023-04-24T08:01:07;8.00;1.00
18581;DHT22;9420;50.876;7.012;2023-04-24T08:03:34;8.00;1.00
18581;DHT22;9420;50.876;7.012;2023-04-24T08:06:01;7.80;1.00
18581;DHT22;9420;50.876;7.012;2023-04-24T08:08:28;7.70;1.00
18581;DHT22;9420;50.876;7.012;2023-04-24T08:10:55;7.60;1.00
18581;DHT22;9420;50.876;7.012;2023-04-24T08:13:22;7.80;1.00
18581;DHT22;9420;50.876;7.012;2023-04-24T08:15:51;7.60;1.00
18581;DHT22;9420;50.876;7.012;2023-04-24T08:18:18;7.60;99.90
18581;DHT22;9420;50.876;7.012;2023-04-24T08:20:45;7.60;99.90
18581;DHT22;9420;50.876;7.012;2023-04-24T08:23:12;7.50;1.00
18581;DHT22;9420;50.876;7.012;2023-04-24T08:25:40;7.60;1.00
18581;DHT22;9420;50.876;7.012;2023-04-24T08:28:09;7.60;1.00
18581;DHT22;9420;50.876;7.012;2023-04-24T08:30:36;7.50;1.00
18581;DHT22;9420;50.876;7.012;2023-04-24T08:33:05;7.40;99.90
18581;DHT22;9420;50.876;7.012;2023-04-24T08:35:32;7.10;99.90
18581;DHT22;9420;50.876;7.012;2023-04-24T08:37:59;6.90;54.00
18581;DHT22;9420;50.876;7.012;2023-04-24T08:40:28;6.80;99.90
18581;DHT22;9420;50.876;7.012;2023-04-24T08:42:56;6.90;99.90
18581;DHT22;9420;50.876;7.012;2023-04-24T08:45:23;6.80;93.70
18581;DHT22;9420;50.876;7.012;2023-04-24T08:47:52;6.70;99.90
18581;DHT22;9420;50.876;7.012;2023-04-24T08:50:22;6.70;1.00
18581;DHT22;9420;50.876;7.012;2023-04-24T08:52:50;6.70;1.00
18581;DHT22;9420;50.876;7.012;2023-04-24T08:55:19;6.80;99.90
18581;DHT22;9420;50.876;7.012;2023-04-24T08:57:50;6.90;65.30
18581;DHT22;9420;50.876;7.012;2023-04-24T09:00:20;6.90;1.00
18581;DHT22;9420;50.876;7.012;2023-04-24T09:02:49;6.90;1.00
18581;DHT22;9420;50.876;7.012;2023-04-24T09:05:17;6.90;30.40
18581;DHT22;9420;50.876;7.012;2023-04-24T09:07:55;6.90;99.90
18581;DHT22;9420;50.876;7.012;2023-04-24T09:10:24;6.80;20.20
18581;DHT22;9420;50.876;7.012;2023-04-24T09:12:53;6.90;1.00
18581;DHT22;9420;50.876;7.012;2023-04-24T09:15:24;7.00;1.00
18581;DHT22;9420;50.876;7.012;2023-04-24T09:17:52;7.00;99.90
18581;DHT22;9420;50.876;7.012;2023-04-24T09:20:19;7.00;99.90
18581;DHT22;9420;50.876;7.012;2023-04-24T09:22:48;7.10;99.90
18581;DHT22;9420;50.876;7.012;2023-04-24T09:25:15;7.10;99.90
18581;DHT22;9420;50.876;7.012;2023-04-24T09:27:43;7.10;99.90
18581;DHT22;9420;50.876;7.012;2023-04-24T09:30:12;7.20;99.90
18581;DHT22;9420;50.876;7.012;2023-04-24T09:32:40;7.30;25.20
18581;DHT22;9420;50.876;7.012;2023-04-24T09:35:12;7.40;99.90
18581;DHT22;9420;50.876;7.012;2023-04-24T09:37:41;7.50;99.90
18581;DHT22;9420;50.876;7.012;2023-04-24T09:40:14;7.50;92.70
18581;DHT22;9420;50.876;7.012;2023-04-24T09:42:46;7.60;1.00
18581;DHT22;9420;50.876;7.012;2023-04-24T09:45:18;7.60;99.90
18581;DHT22;9420;50.876;7.012;2023-04-24T09:47:51;7.60;1.00
18581;DHT22;9420;50.876;7.012;2023-04-24T09:50:19;7.70;99.90
18581;DHT22;9420;50.876;7.012;2023-04-24T09:52:56;7.70;99.90
18581;DHT22;9420;50.876;7.012;2023-04-24T09:55:26;7.80;1.00
18581;DHT22;9420;50.876;7.012;2023-04-24T09:57:57;7.80;99.90
18581;DHT22;9420;50.876;7.012;2023-04-24T10:00:27;8.00;1.00
18581;DHT22;9420;50.876;7.012;2023-04-24T10:02:58;8.00;49.00
18581;DHT22;9420;50.876;7.012;2023-04-24T10:05:28;8.10;99.90
18581;DHT22;9420;50.876;7.012;2023-04-24T10:07:58;8.10;1.00
18581;DHT22;9420;50.876;7.012;2023-04-24T10:10:29;8.20;1.00
18581;DHT22;9420;50.876;7.012;2023-04-24T10:12:56;8.30;1.00
18581;DHT22;9420;50.876;7.012;2023-04-24T10:15:26;8.30;99.90
18581;DHT22;9420;50.876;7.012;2023-04-24T10:17:53;8.30;99.90
18581;DHT22;9420;50.876;7.012;2023-04-24T10:20:22;8.40;1.00
18581;DHT22;9420;50.876;7.012;2023-04-24T10:22:51;8.40;85.10
18581;DHT22;9420;50.876;7.012;2023-04-24T10:25:21;8.50;99.90
18581;DHT22;9420;50.876;7.012;2023-04-24T10:27:53;8.70;99.90
18581;DHT22;9420;50.876;7.012;2023-04-24T10:30:23;8.70;1.00
18581;DHT22;9420;50.876;7.012;2023-04-24T10:32:50;8.70;99.90
18581;DHT22;9420;50.876;7.012;2023-04-24T10:35:18;8.70;1.00
18581;DHT22;9420;50.876;7.012;2023-04-24T10:37:50;8.80;99.90
18581;DHT22;9420;50.876;7.012;2023-04-24T10:40:26;8.90;1.00
18581;DHT22;9420;50.876;7.012;2023-04-24T10:42:58;8.90;99.90
18581;DHT22;9420;50.876;7.012;2023-04-24T10:45:28;8.80;99.90
18581;DHT22;9420;50.876;7.012;2023-04-24T10:47:59;8.90;99.90
18581;DHT22;9420;50.876;7.012;2023-04-24T10:50:34;9.00;1.00
18581;DHT22;9420;50.876;7.012;2023-04-24T10:53:13;9.20;99.90
18581;DHT22;9420;50.876;7.012;2023-04-24T10:55:45;9.30;23.20
18581;DHT22;9420;50.876;7.012;2023-04-24T10:58:15;9.50;1.00
18581;DHT22;9420;50.876;7.012;2023-04-24T11:00:57;9.60;1.00
18581;DHT22;9420;50.876;7.012;2023-04-24T11:03:26;9.60;1.00
18581;DHT22;9420;50.876;7.012;2023-04-24T11:06:00;9.70;47.40
18581;DHT22;9420;50.876;7.012;2023-04-24T11:08:31;9.70;1.00
18581;DHT22;9420;50.876;7.012;2023-04-24T11:11:07;9.70;1.00
18581;DHT22;9420;50.876;7.012;2023-04-24T11:14:03;9.70;77.60
18581;DHT22;9420;50.876;7.012;2023-04-24T11:16:34;9.70;99.90
18581;DHT22;9420;50.876;7.012;2023-04-24T11:19:06;9.60;99.90
18581;DHT22;9420;50.876;7.012;2023-04-24T11:21:42;9.70;99.90
18581;DHT22;9420;50.876;7.012;2023-04-24T11:24:24;9.70;99.90
18581;DHT22;9420;50.876;7.012;2023-04-24T11:26:57;9.60;99.90
18581;DHT22;9420;50.876;7.012;2023-04-24T11:29:42;9.60;99.90
18581;DHT22;9420;50.876;7.012;2023-04-24T11:32:18;9.50;1.00
18581;DHT22;9420;50.876;7.012;2023-04-24T11:34:51;9.40;99.90
18581;DHT22;9420;50.876;7.012;2023-04-24T11:37:19;9.30;99.90
18581;DHT22;9420;50.876;7.012;2023-04-24T11:39:46;9.30;99.90
18581;DHT22;9420;50.876;7.012;2023-04-24T11:42:14;9.30;99.90
18581;DHT22;9420;50.876;7.012;2023-04-24T11:44:43;9.30;1.00
18581;DHT22;9420;50.876;7.012;2023-04-24T11:47:13;9.20;1.00
18581;DHT22;9420;50.876;7.012;2023-04-24T11:49:40;9.20;1.00
18581;DHT22;9420;50.876;7.012;2023-04-24T11:52:07;9.30;1.00
18581;DHT22;9420;50.876;7.012;2023-04-24T11:54:34;9.50;99.90
18581;DHT22;9420;50.876;7.012;2023-04-24T11:57:04;9.90;1.00
18581;DHT22;9420;50.876;7.012;2023-04-24T11:59:36;10.00;99.90
18581;DHT22;9420;50.876;7.012;2023-04-24T12:02:05;10.40;99.90
18581;DHT22;9420;50.876;7.012;2023-04-24T12:04:39;10.50;1.00
18581;DHT22;9420;50.876;7.012;2023-04-24T12:07:07;10.60;1.00
18581;DHT22;9420;50.876;7.012;2023-04-24T12:09:43;10.80;1.00
18581;DHT22;9420;50.876;7.012;2023-04-24T12:12:12;10.80;1.00
18581;DHT22;9420;50.876;7.012;2023-04-24T12:14:48;11.30;99.90
18581;DHT22;9420;50.876;7.012;2023-04-24T12:17:17;12.00;1.00
18581;DHT22;9420;50.876;7.012;2023-04-24T12:19:51;11.80;1.00
18581;DHT22;9420;50.876;7.012;2023-04-24T12:22:19;11.60;1.00
18581;DHT22;9420;50.876;7.012;2023-04-24T12:24:59;11.30;1.00
18581;DHT22;9420;50.876;7.012;2023-04-24T12:27:31;11.10;1.00
18581;DHT22;9420;50.876;7.012;2023-04-24T12:30:02;11.00;1.00
18581;DHT22;9420;50.876;7.012;2023-04-24T12:32:31;10.80;1.00
18581;DHT22;9420;50.876;7.012;2023-04-24T12:34:58;10.70;1.00
18581;DHT22;9420;50.876;7.012;2023-04-24T12:37:26;10.60;1.00
18581;DHT22;9420;50.876;7.012;2023-04-24T12:40:03;10.40;1.00
18581;DHT22;9420;50.876;7.012;2023-04-24T12:42:33;10.30;99.90
18581;DHT22;9420;50.876;7.012;2023-04-24T12:45:03;10.30;53.70
18581;DHT22;9420;50.876;7.012;2023-04-24T12:47:34;10.80;99.90
18581;DHT22;9420;50.876;7.012;2023-04-24T12:50:02;12.10;1.00
18581;DHT22;9420;50.876;7.012;2023-04-24T12:52:30;13.00;99.90
18581;DHT22;9420;50.876;7.012;2023-04-24T12:54:59;13.80;99.90
18581;DHT22;9420;50.876;7.012;2023-04-24T12:57:28;13.80;1.00
18581;DHT22;9420;50.876;7.012;2023-04-24T12:59:57;13.10;1.00
18581;DHT22;9420;50.876;7.012;2023-04-24T13:02:27;12.90;1.00
18581;DHT22;9420;50.876;7.012;2023-04-24T13:04:58;13.00;1.00
18581;DHT22;9420;50.876;7.012;2023-04-24T13:07:25;12.90;1.00
18581;DHT22;9420;50.876;7.012;2023-04-24T13:09:54;13.00;1.00
18581;DHT22;9420;50.876;7.012;2023-04-24T13:12:23;13.10;99.90
18581;DHT22;9420;50.876;7.012;2023-04-24T13:14:51;13.10;99.90
18581;DHT22;9420;50.876;7.012;2023-04-24T13:17:17;13.10;99.90
18581;DHT22;9420;50.876;7.012;2023-04-24T13:19:44;12.70;1.00
18581;DHT22;9420;50.876;7.012;2023-04-24T13:22:13;12.40;1.00
18581;DHT22;9420;50.876;7.012;2023-04-24T13:24:40;12.40;1.00
18581;DHT22;9420;50.876;7.012;2023-04-24T13:27:07;12.40;1.00
18581;DHT22;9420;50.876;7.012;2023-04-24T13:29:35;12.30;1.00
18581;DHT22;9420;50.876;7.012;2023-04-24T13:32:02;12.70;1.00
18581;DHT22;9420;50.876;7.012;2023-04-24T13:34:29;12.70;1.00
18581;DHT22;9420;50.876;7.012;2023-04-24T13:36:57;12.60;1.00
18581;DHT22;9420;50.876;7.012;2023-04-24T13:39:26;12.50;1.00
18581;DHT22;9420;50.876;7.012;2023-04-24T13:41:54;13.20;1.00
18581;DHT22;9420;50.876;7.012;2023-04-24T13:44:22;13.70;1.00
18581;DHT22;9420;50.876;7.012;2023-04-24T13:46:51;13.30;1.00
18581;DHT22;9420;50.876;7.012;2023-04-24T13:49:22;13.60;1.00
18581;DHT22;9420;50.876;7.012;2023-04-24T13:51:50;13.60;1.00
18581;DHT22;9420;50.876;7.012;2023-04-24T13:54:18;14.80;99.90
18581;DHT22;9420;50.876;7.012;2023-04-24T13:56:47;15.00;99.90
18581;DHT22;9420;50.876;7.012;2023-04-24T13:59:14;13.80;99.90
18581;DHT22;9420;50.876;7.012;2023-04-24T14:01:41;13.30;99.90
18581;DHT22;9420;50.876;7.012;2023-04-24T14:04:08;12.80;99.90
18581;DHT22;9420;50.876;7.012;2023-04-24T14:06:35;12.50;99.90
18581;DHT22;9420;50.876;7.012;2023-04-24T14:09:05;12.50;99.90
18581;DHT22;9420;50.876;7.012;2023-04-24T14:11:33;12.40;99.90
18581;DHT22;9420;50.876;7.012;2023-04-24T14:14:02;12.50;99.90
18581;DHT22;9420;50.876;7.012;2023-04-24T14:16:29;12.60;99.90
18581;DHT22;9420;50.876;7.012;2023-04-24T14:18:57;12.90;99.90
18581;DHT22;9420;50.876;7.012;2023-04-24T14:21:24;12.80;99.90
18581;DHT22;9420;50.876;7.012;2023-04-24T14:23:51;12.70;99.90
18581;DHT22;9420;50.876;7.012;2023-04-24T14:26:18;12.70;99.90
18581;DHT22;9420;50.876;7.012;2023-04-24T14:28:45;13.00;99.90
18581;DHT22;9420;50.876;7.012;2023-04-24T14:31:14;14.40;99.90
18581;DHT22;9420;50.876;7.012;2023-04-24T14:33:41;14.40;99.90
18581;DHT22;9420;50.876;7.012;2023-04-24T14:36:09;14.80;99.90
18581;DHT22;9420;50.876;7.012;2023-04-24T14:38:35;15.60;99.10
18581;DHT22;9420;50.876;7.012;2023-04-24T14:41:03;14.80;53.00
18581;DHT22;9420;50.876;7.012;2023-04-24T14:43:34;14.10;43.80
18581;DHT22;9420;50.876;7.012;2023-04-24T14:46:02;14.80;19.70
18581;DHT22;9420;50.876;7.012;2023-04-24T14:48:30;15.60;1.00
18581;DHT22;9420;50.876;7.012;2023-04-24T14:50:57;16.00;1.00
18581;DHT22;9420;50.876;7.012;2023-04-24T14:53:24;16.00;1.00
18581;DHT22;9420;50.876;7.012;2023-04-24T14:55:51;14.80;1.00
18581;DHT22;9420;50.876;7.012;2023-04-24T14:58:18;15.20;1.00
18581;DHT22;9420;50.876;7.012;2023-04-24T15:00:45;15.30;1.00
18581;DHT22;9420;50.876;7.012;2023-04-24T15:03:15;15.70;1.00
18581;DHT22;9420;50.876;7.012;2023-04-24T15:05:45;15.80;1.00
18581;DHT22;9420;50.876;7.012;2023-04-24T15:08:12;16.70;1.00
18581;DHT22;9420;50.876;7.012;2023-04-24T15:10:39;16.80;1.00
18581;DHT22;9420;50.876;7.012;2023-04-24T15:13:06;16.80;1.00
18581;DHT22;9420;50.876;7.012;2023-04-24T15:15:34;16.00;1.00
18581;DHT22;9420;50.876;7.012;2023-04-24T15:18:01;15.60;1.00
18581;DHT22;9420;50.876;7.012;2023-04-24T15:20:28;14.40;1.00
18581;DHT22;9420;50.876;7.012;2023-04-24T15:22:56;13.80;1.00
18581;DHT22;9420;50.876;7.012;2023-04-24T15:25:26;13.50;1.00
18581;DHT22;9420;50.876;7.012;2023-04-24T15:27:53;13.60;1.00
18581;DHT22;9420;50.876;7.012;2023-04-24T15:30:20;13.40;1.00
18581;DHT22;9420;50.876;7.012;2023-04-24T15:32:48;13.90;1.00
18581;DHT22;9420;50.876;7.012;2023-04-24T15:35:16;13.60;1.00
18581;DHT22;9420;50.876;7.012;2023-04-24T15:37:43;13.90;1.00
18581;DHT22;9420;50.876;7.012;2023-04-24T15:40:14;13.70;1.00
18581;DHT22;9420;50.876;7.012;2023-04-24T15:42:42;13.60;1.00
18581;DHT22;9420;50.876;7.012;2023-04-24T15:45:10;14.10;1.00
18581;DHT22;9420;50.876;7.012;2023-04-24T15:47:38;14.00;1.00
18581;DHT22;9420;50.876;7.012;2023-04-24T15:50:06;14.60;1.00
18581;DHT22;9420;50.876;7.012;2023-04-24T15:52:35;14.70;1.00
18581;DHT22;9420;50.876;7.012;2023-04-24T15:55:03;15.00;1.00
18581;DHT22;9420;50.876;7.012;2023-04-24T15:57:32;16.30;1.00
18581;DHT22;9420;50.876;7.012;2023-04-24T15:59:59;16.60;1.00
18581;DHT22;9420;50.876;7.012;2023-04-24T16:02:26;15.30;1.00
18581;DHT22;9420;50.876;7.012;2023-04-24T16:04:54;14.80;1.00
18581;DHT22;9420;50.876;7.012;2023-04-24T16:07:21;14.30;1.00
18581;DHT22;9420;50.876;7.012;2023-04-24T16:09:48;13.70;1.00
18581;DHT22;9420;50.876;7.012;2023-04-24T16:12:15;13.20;1.00